Time;durP1;ratioP1;P1;durP2;ratioP2;P2;SDS_P1;SDS_P2;PMS_P1;PMS_P2;Temp;Humidity;BMP_temperature;BMP_pressure;BME280_temperature;BME280_humidity;BME280_pressure;Samples;Min_cycle;Max_cycle;Signal;HPM_P1;HPM_P2
2023/08/26 00:01:41;;;;;;;6.80;6.10;;;20.20;52.30;;;;;;5111845;28;20511;-70
2023/08/26 00:04:07;;;;;;;8.27;6.20;;;20.20;52.70;;;;;;5112102;28;20226;-70
2023/08/26 00:06:33;;;;;;;10.13;7.60;;;20.30;52.30;;;;;;5112142;28;20179;-71
2023/08/26 00:08:58;;;;;;;6.87;5.47;;;20.20;54.10;;;;;;5112163;28;20177;-70
2023/08/26 00:11:24;;;;;;;9.43;7.03;;;20.20;51.30;;;;;;5111970;28;20457;-70
2023/08/26 00:13:49;;;;;;;9.63;7.67;;;20.30;50.50;;;;;;5095266;28;20210;-71
2023/08/26 00:16:15;;;;;;;6.60;5.43;;;20.20;48.30;;;;;;5115951;28;20173;-70
2023/08/26 00:18:41;;;;;;;11.33;6.60;;;20.10;50.40;;;;;;5115851;28;20180;-70
2023/08/26 00:21:06;;;;;;;8.40;6.80;;;20.20;50.40;;;;;;5115859;28;20215;-71
2023/08/26 00:23:32;;;;;;;11.57;7.27;;;20.30;48.20;;;;;;5097213;28;20173;-71
2023/08/26 00:25:57;;;;;;;7.10;5.60;;;20.30;49.40;;;;;;5115859;28;20259;-70
2023/08/26 00:28:23;;;;;;;7.53;6.77;;;20.20;48.30;;;;;;5115809;28;20516;-72
2023/08/26 00:30:59;;;;;;;7.57;6.10;;;20.10;50.40;;;;;;5116565;28;20200;-70
2023/08/26 00:33:26;;;;;;;7.77;6.30;;;20.10;50.40;;;;;;5115429;28;20550;-69
2023/08/26 00:35:51;;;;;;;9.60;7.80;;;20.00;51.20;;;;;;5097062;28;20497;-69
2023/08/26 00:38:17;;;;;;;7.67;6.10;;;20.00;50.90;;;;;;5115404;28;20506;-69
2023/08/26 00:40:42;;;;;;;10.03;7.13;;;20.00;51.20;;;;;;5096930;28;20204;-70
2023/08/26 00:43:08;;;;;;;8.73;6.40;;;20.00;50.30;;;;;;5115035;28;20234;-69
2023/08/26 00:45:40;;;;;;;7.50;6.77;;;20.10;50.40;;;;;;5115250;28;20180;-70
2023/08/26 00:48:08;;;;;;;9.20;6.10;;;20.10;50.40;;;;;;5115216;28;20821;-69
2023/08/26 00:50:34;;;;;;;9.50;6.57;;;20.10;50.90;;;;;;5114866;28;20462;-69
2023/08/26 00:53:01;;;;;;;6.40;5.80;;;20.10;50.40;;;;;;5114876;28;20916;-70
2023/08/26 00:55:26;;;;;;;11.30;6.53;;;20.10;52.00;;;;;;5115078;28;20413;-69
2023/08/26 00:57:53;;;;;;;8.80;6.50;;;20.10;51.40;;;;;;5115049;28;20402;-69
2023/08/26 01:00:19;;;;;;;6.13;5.50;;;20.20;50.40;;;;;;5115001;28;20224;-71
2023/08/26 01:02:45;;;;;;;8.03;6.60;;;20.20;50.40;;;;;;5114705;28;20433;-69
2023/08/26 01:05:11;;;;;;;8.13;6.80;;;20.20;50.40;;;;;;5114956;28;20422;-70
2023/08/26 01:07:36;;;;;;;12.80;7.60;;;20.20;48.10;;;;;;5115030;28;20923;-69
2023/08/26 01:10:03;;;;;;;7.90;7.10;;;20.20;49.70;;;;;;5114939;28;20204;-69
2023/08/26 01:12:39;;;;;;;10.77;7.90;;;20.20;50.40;;;;;;5116616;28;20577;-69
2023/08/26 01:15:10;;;;;;;8.07;7.27;;;20.20;49.70;;;;;;5117269;28;20406;-69
2023/08/26 01:17:36;;;;;;;8.60;6.80;;;20.10;50.30;;;;;;5115867;28;20407;-70
2023/08/26 01:20:03;;;;;;;8.53;5.60;;;20.20;49.20;;;;;;5097098;28;20946;-70
2023/08/26 01:22:30;;;;;;;10.23;6.07;;;20.20;48.70;;;;;;5114959;28;20177;-70
2023/08/26 01:24:56;;;;;;;8.30;7.60;;;20.20;50.40;;;;;;5114672;28;20410;-70
2023/08/26 01:27:22;;;;;;;7.07;5.73;;;20.30;49.20;;;;;;5114539;28;20417;-70
2023/08/26 01:29:47;;;;;;;11.37;6.80;;;20.20;50.10;;;;;;5114352;28;20279;-70
2023/08/26 01:32:33;;;;;;;7.50;6.80;;;20.30;49.40;;;;;;5114257;28;20597;-69
2023/08/26 01:34:59;;;;;;;7.30;5.60;;;20.30;49.70;;;;;;5096060;28;20173;-70
2023/08/26 01:37:27;;;;;;;9.00;6.90;;;20.20;47.00;;;;;;5114341;28;20414;-70
2023/08/26 01:39:55;;;;;;;10.70;5.70;;;20.20;48.50;;;;;;5114120;28;20449;-70
2023/08/26 01:42:24;;;;;;;5.87;5.37;;;20.20;46.70;;;;;;5095817;28;20423;-69
2023/08/26 01:44:50;;;;;;;7.43;6.23;;;20.20;50.40;;;;;;5114180;28;20414;-69
2023/08/26 01:47:16;;;;;;;6.20;5.60;;;20.20;48.10;;;;;;5114263;28;20609;-69
2023/08/26 01:49:41;;;;;;;10.70;7.23;;;20.20;50.40;;;;;;5096201;28;20446;-70
2023/08/26 01:52:07;;;;;;;8.90;6.40;;;20.30;48.70;;;;;;5116401;28;20208;-71
2023/08/26 01:54:32;;;;;;;8.43;5.73;;;20.40;46.10;;;;;;5115788;28;20183;-71
2023/08/26 01:56:58;;;;;;;7.40;5.73;;;20.40;44.20;;;;;;5116720;28;20248;-69
2023/08/26 01:59:23;;;;;;;6.90;5.20;;;20.40;44.00;;;;;;5116794;28;20177;-71
2023/08/26 02:01:49;;;;;;;13.30;5.90;;;20.40;44.90;;;;;;5116003;28;20172;-71
2023/08/26 02:04:15;;;;;;;8.87;6.73;;;20.30;45.40;;;;;;5115728;28;20179;-70
2023/08/26 02:06:40;;;;;;;10.80;7.97;;;20.10;48.00;;;;;;5116414;28;20168;-70
2023/08/26 02:09:09;;;;;;;7.80;5.80;;;20.00;50.30;;;;;;5117594;28;20542;-71
2023/08/26 02:11:35;;;;;;;10.40;7.27;;;20.10;50.10;;;;;;5098522;28;20299;-69
2023/08/26 02:14:00;;;;;;;7.90;7.10;;;20.10;49.20;;;;;;5119228;28;20466;-70
2023/08/26 02:16:26;;;;;;;7.97;5.70;;;20.10;48.50;;;;;;5118968;28;20169;-70
2023/08/26 02:18:52;;;;;;;8.33;5.97;;;20.10;47.00;;;;;;5118148;28;20172;-71
2023/08/26 02:21:18;;;;;;;7.00;4.67;;;20.00;47.70;;;;;;5116780;28;20226;-70
2023/08/26 02:23:43;;;;;;;6.07;5.47;;;20.00;49.40;;;;;;5116075;28;20406;-71
2023/08/26 02:26:09;;;;;;;9.50;7.80;;;19.90;50.20;;;;;;5116509;28;20261;-70
2023/08/26 02:28:35;;;;;;;9.33;6.87;;;19.90;52.00;;;;;;5115497;28;20191;-71
2023/08/26 02:31:02;;;;;;;6.50;5.90;;;19.80;52.30;;;;;;5115195;28;20208;-71
2023/08/26 02:33:28;;;;;;;7.23;6.50;;;19.80;52.40;;;;;;5114435;28;20164;-71
2023/08/26 02:35:54;;;;;;;7.43;6.47;;;19.70;52.00;;;;;;5114745;28;20825;-70
2023/08/26 02:38:19;;;;;;;5.57;5.00;;;19.60;52.70;;;;;;5115835;28;20168;-69
2023/08/26 02:40:52;;;;;;;5.20;4.67;;;19.60;52.50;;;;;;5117388;28;20199;-70
2023/08/26 02:43:18;;;;;;;4.57;4.07;;;19.60;55.70;;;;;;5121091;28;20173;-70
2023/08/26 02:45:44;;;;;;;6.30;5.70;;;19.60;52.70;;;;;;5121781;28;20418;-70
2023/08/26 02:48:09;;;;;;;6.13;4.73;;;19.60;54.40;;;;;;5120812;28;20508;-69
2023/08/26 02:50:37;;;;;;;7.10;4.60;;;19.60;53.80;;;;;;5101292;28;20216;-70
2023/08/26 02:53:03;;;;;;;5.13;4.33;;;19.60;53.50;;;;;;5119028;28;20176;-71
2023/08/26 02:55:29;;;;;;;8.20;3.53;;;19.50;53.30;;;;;;5118376;28;20411;-71
2023/08/26 02:57:54;;;;;;;5.63;3.80;;;19.50;53.10;;;;;;5119139;28;20410;-71
2023/08/26 03:00:20;;;;;;;6.17;4.43;;;19.50;52.90;;;;;;5119011;28;20216;-70
2023/08/26 03:02:45;;;;;;;5.03;3.80;;;19.50;53.20;;;;;;5116524;28;20200;-70
2023/08/26 03:05:11;;;;;;;10.63;4.27;;;19.50;53.10;;;;;;5115123;28;20658;-71
2023/08/26 03:07:36;;;;;;;5.77;4.17;;;19.50;52.80;;;;;;5098410;28;20633;-71
2023/08/26 03:10:02;;;;;;;12.00;5.13;;;19.50;52.30;;;;;;5120172;28;20188;-69
2023/08/26 03:12:28;;;;;;;5.10;3.33;;;19.50;51.70;;;;;;5117034;28;20529;-71
2023/08/26 03:14:53;;;;;;;5.97;4.40;;;19.50;50.20;;;;;;5116894;28;20263;-71
2023/08/26 03:17:19;;;;;;;4.47;3.70;;;19.40;53.00;;;;;;5116319;28;20648;-71
2023/08/26 03:19:44;;;;;;;4.63;4.13;;;19.50;53.40;;;;;;5118390;28;20282;-69
2023/08/26 03:22:10;;;;;;;6.50;4.77;;;19.50;52.40;;;;;;5122432;28;20216;-70
2023/08/26 03:24:36;;;;;;;5.87;3.80;;;19.50;50.90;;;;;;5104066;28;20192;-70
2023/08/26 03:27:01;;;;;;;5.20;3.50;;;19.40;49.70;;;;;;5122251;28;20259;-70
2023/08/26 03:29:27;;;;;;;6.30;3.57;;;19.40;51.40;;;;;;5121498;28;20471;-70
2023/08/26 03:31:53;;;;;;;6.00;4.37;;;19.40;52.50;;;;;;5122192;28;20204;-69
2023/08/26 03:34:18;;;;;;;4.90;3.23;;;19.40;52.60;;;;;;5121489;28;20188;-70
2023/08/26 03:36:44;;;;;;;6.20;4.00;;;19.30;53.20;;;;;;5121007;28;20235;-70
2023/08/26 03:39:09;;;;;;;5.60;4.50;;;19.40;53.70;;;;;;5121314;28;20176;-69
2023/08/26 03:41:35;;;;;;;7.60;4.63;;;19.50;53.60;;;;;;5121123;28;20291;-69
2023/08/26 03:44:01;;;;;;;5.33;4.07;;;19.50;54.10;;;;;;5120978;28;20196;-70
2023/08/26 03:46:27;;;;;;;5.97;4.20;;;19.50;53.50;;;;;;5121680;28;20191;-70
2023/08/26 03:48:52;;;;;;;7.03;3.90;;;19.60;52.90;;;;;;5124010;28;20203;-70
2023/08/26 03:51:18;;;;;;;5.07;3.90;;;19.70;51.40;;;;;;5124451;28;20493;-71
2023/08/26 03:53:44;;;;;;;5.60;4.20;;;19.70;53.10;;;;;;5118429;28;20196;-70
2023/08/26 03:56:09;;;;;;;10.10;4.87;;;19.70;54.20;;;;;;5118958;28;20176;-71
2023/08/26 03:58:35;;;;;;;6.40;4.60;;;19.70;53.60;;;;;;5118803;28;20172;-71
2023/08/26 04:01:04;;;;;;;5.70;4.60;;;19.80;53.30;;;;;;5118781;28;20196;-71
2023/08/26 04:03:30;;;;;;;6.33;4.30;;;19.80;53.30;;;;;;5102903;28;20553;-70
2023/08/26 04:06:03;;;;;;;5.97;4.40;;;19.70;53.40;;;;;;5121166;28;20422;-71
2023/08/26 04:08:32;;;;;;;4.23;3.77;;;19.70;52.80;;;;;;5120163;28;20248;-71
2023/08/26 04:10:59;;;;;;;7.13;4.80;;;19.80;53.40;;;;;;5118884;28;20462;-70
2023/08/26 04:13:26;;;;;;;4.30;3.90;;;19.80;51.60;;;;;;5119731;28;20903;-70
2023/08/26 04:15:54;;;;;;;5.93;3.70;;;19.70;51.70;;;;;;5120630;28;20402;-70
2023/08/26 04:18:20;;;;;;;3.87;3.47;;;19.70;51.70;;;;;;5120103;28;20408;-71
2023/08/26 04:20:46;;;;;;;7.60;4.30;;;19.80;51.40;;;;;;5120462;28;20432;-70
2023/08/26 04:23:11;;;;;;;4.20;3.80;;;19.70;51.30;;;;;;5120642;28;20505;-71
2023/08/26 04:25:38;;;;;;;6.00;4.47;;;19.60;50.30;;;;;;5121403;28;20176;-70
2023/08/26 04:28:04;;;;;;;4.03;3.00;;;19.60;50.80;;;;;;5120512;28;20259;-71
2023/08/26 04:30:30;;;;;;;4.63;4.13;;;19.60;50.80;;;;;;5102033;28;20485;-71
2023/08/26 04:32:56;;;;;;;5.80;4.13;;;19.70;50.20;;;;;;5118936;28;20489;-71
2023/08/26 04:35:21;;;;;;;4.43;3.87;;;19.70;51.00;;;;;;5117529;28;20777;-71
2023/08/26 04:37:47;;;;;;;4.33;3.70;;;19.70;51.90;;;;;;5116745;28;20187;-71
2023/08/26 04:40:12;;;;;;;8.00;4.90;;;19.70;50.50;;;;;;5117469;28;20194;-70
2023/08/26 04:42:39;;;;;;;7.10;4.30;;;19.80;50.90;;;;;;5115880;28;20169;-70
2023/08/26 04:45:05;;;;;;;6.43;3.87;;;19.80;50.00;;;;;;5115428;28;20184;-70
2023/08/26 04:47:31;;;;;;;13.63;4.10;;;19.80;50.10;;;;;;5115571;28;20456;-70
2023/08/26 04:49:57;;;;;;;5.70;4.60;;;19.80;50.00;;;;;;5115823;28;20958;-69
2023/08/26 04:52:22;;;;;;;6.27;3.87;;;19.80;50.10;;;;;;5114986;28;20622;-68
2023/08/26 04:54:48;;;;;;;5.37;4.40;;;19.90;49.90;;;;;;5115415;28;20436;-68
2023/08/26 04:57:13;;;;;;;4.13;3.70;;;19.90;50.10;;;;;;5115241;28;20656;-69
2023/08/26 04:59:39;;;;;;;6.20;4.30;;;19.90;49.70;;;;;;5114955;28;20195;-69
2023/08/26 05:02:07;;;;;;;4.40;3.90;;;20.00;50.30;;;;;;5114907;28;20240;-69
2023/08/26 05:04:34;;;;;;;10.63;4.20;;;20.00;47.80;;;;;;5115216;28;20240;-69
2023/08/26 05:06:59;;;;;;;5.37;3.93;;;20.00;47.50;;;;;;5115293;28;20410;-68
2023/08/26 05:09:25;;;;;;;5.20;4.20;;;20.00;47.30;;;;;;5115123;28;20429;-67
2023/08/26 05:11:50;;;;;;;6.10;3.90;;;20.00;47.10;;;;;;5115360;28;20205;-67
2023/08/26 05:14:16;;;;;;;8.47;4.73;;;20.10;47.80;;;;;;5115153;28;20188;-67
2023/08/26 05:16:42;;;;;;;9.17;4.87;;;20.00;49.40;;;;;;5114923;28;20218;-68
2023/08/26 05:19:08;;;;;;;6.70;4.13;;;20.00;49.20;;;;;;5114651;28;20204;-67
2023/08/26 05:21:33;;;;;;;4.43;3.80;;;20.00;48.70;;;;;;5114339;28;20197;-68
2023/08/26 05:24:03;;;;;;;6.40;4.60;;;20.10;48.90;;;;;;5114563;28;20822;-68
2023/08/26 05:26:29;;;;;;;4.90;4.10;;;20.10;49.50;;;;;;5114440;28;20593;-68
2023/08/26 05:28:54;;;;;;;6.07;4.20;;;20.10;47.80;;;;;;5115483;28;20487;-69
2023/08/26 05:31:20;;;;;;;4.27;3.87;;;20.10;47.90;;;;;;5098154;28;20201;-69
2023/08/26 05:33:45;;;;;;;5.27;4.13;;;20.10;47.50;;;;;;5115782;28;20184;-69
2023/08/26 05:36:11;;;;;;;8.30;5.17;;;20.10;51.30;;;;;;5116352;28;20516;-69
2023/08/26 05:38:36;;;;;;;5.20;3.90;;;20.00;51.30;;;;;;5116123;28;20198;-69
2023/08/26 05:41:02;;;;;;;5.60;4.60;;;20.00;49.10;;;;;;5114707;28;20227;-69
2023/08/26 05:43:29;;;;;;;8.83;3.97;;;20.00;48.70;;;;;;5114566;28;20184;-69
2023/08/26 05:45:56;;;;;;;4.70;4.20;;;20.00;48.90;;;;;;5111516;28;20872;-69
2023/08/26 05:48:22;;;;;;;5.57;4.30;;;20.00;49.30;;;;;;5109003;28;20946;-69
2023/08/26 05:50:47;;;;;;;5.37;4.60;;;20.00;48.90;;;;;;5113911;28;20480;-69
2023/08/26 05:53:13;;;;;;;7.40;5.07;;;20.00;49.50;;;;;;5111781;28;20176;-69
2023/08/26 05:55:41;;;;;;;5.43;5.03;;;20.00;50.30;;;;;;5114237;28;20177;-68
2023/08/26 05:58:06;;;;;;;8.20;4.00;;;19.90;50.20;;;;;;5114044;28;20176;-69
2023/08/26 06:00:32;;;;;;;4.87;4.03;;;20.00;49.40;;;;;;5114056;28;20442;-69
2023/08/26 06:02:57;;;;;;;10.80;4.77;;;20.10;49.30;;;;;;5113671;28;20183;-69
2023/08/26 06:05:23;;;;;;;6.40;4.80;;;20.10;50.40;;;;;;5111737;28;20661;-68
2023/08/26 06:07:50;;;;;;;6.43;3.97;;;20.30;50.20;;;;;;5114108;28;20180;-69
2023/08/26 06:10:16;;;;;;;10.70;4.47;;;20.40;46.60;;;;;;5113521;28;20558;-69
2023/08/26 06:12:42;;;;;;;5.47;4.80;;;20.60;44.10;;;;;;5112855;28;20407;-69
2023/08/26 06:15:08;;;;;;;7.40;4.43;;;20.70;40.50;;;;;;5113770;28;20216;-69
2023/08/26 06:17:34;;;;;;;5.37;4.17;;;20.90;33.90;;;;;;5095389;28;20173;-69
2023/08/26 06:20:00;;;;;;;4.40;3.40;;;21.60;34.90;;;;;;5095266;28;20483;-69
2023/08/26 06:22:25;;;;;;;5.30;3.80;;;24.10;23.30;;;;;;5113472;28;20402;-69
2023/08/26 06:24:51;;;;;;;3.13;2.47;;;26.10;9.70;;;;;;5113717;28;20183;-69
2023/08/26 06:27:17;;;;;;;3.13;2.83;;;28.40;3.50;;;;;;5113448;28;20173;-70
2023/08/26 06:29:52;;;;;;;6.43;2.87;;;29.60;1.00;;;;;;5113532;28;20381;-70
2023/08/26 06:32:17;;;;;;;7.60;3.10;;;28.50;1.00;;;;;;5113145;28;20172;-69
2023/08/26 06:34:44;;;;;;;7.60;4.17;;;28.10;1.00;;;;;;5113381;28;20410;-69
2023/08/26 06:37:09;;;;;;;5.43;3.90;;;29.00;1.00;;;;;;5113261;28;20177;-70
2023/08/26 06:39:35;;;;;;;4.60;3.00;;;30.30;1.00;;;;;;5113292;28;20413;-70
2023/08/26 06:42:00;;;;;;;5.73;3.70;;;30.00;1.00;;;;;;5112932;28;20220;-69
2023/08/26 06:44:26;;;;;;;4.77;4.03;;;30.40;1.00;;;;;;5113577;28;20185;-70
2023/08/26 06:46:51;;;;;;;5.33;4.03;;;31.30;1.00;;;;;;5113082;28;20458;-70
2023/08/26 06:49:17;;;;;;;9.33;4.30;;;31.70;1.00;;;;;;5113162;28;20215;-70
2023/08/26 06:51:42;;;;;;;5.00;4.03;;;30.70;1.00;;;;;;5112512;28;20245;-69
2023/08/26 06:54:08;;;;;;;4.87;3.53;;;29.70;1.00;;;;;;5113107;28;20188;-70
2023/08/26 06:56:33;;;;;;;7.43;4.27;;;29.20;1.00;;;;;;5113150;28;20237;-70
2023/08/26 06:58:59;;;;;;;5.00;3.60;;;29.60;1.00;;;;;;5113246;28;20234;-70
2023/08/26 07:01:25;;;;;;;5.63;3.97;;;28.90;1.00;;;;;;5112869;28;20668;-70
2023/08/26 07:03:51;;;;;;;5.07;4.00;;;28.50;1.00;;;;;;5112906;28;20181;-70
2023/08/26 07:06:16;;;;;;;10.53;3.53;;;28.20;1.00;;;;;;5113259;28;20187;-70
2023/08/26 07:08:42;;;;;;;5.50;4.53;;;27.60;1.00;;;;;;5112954;28;20225;-70
2023/08/26 07:11:07;;;;;;;5.47;4.90;;;27.30;1.00;;;;;;5110142;28;20682;-70
2023/08/26 07:13:33;;;;;;;6.60;3.87;;;26.60;1.00;;;;;;5092085;28;20283;-70
2023/08/26 07:15:58;;;;;;;8.33;3.87;;;25.70;2.00;;;;;;5092491;28;20647;-71
2023/08/26 07:18:24;;;;;;;4.43;3.83;;;25.10;4.70;;;;;;5092303;28;20650;-70
2023/08/26 07:20:49;;;;;;;6.73;3.70;;;24.10;6.80;;;;;;5092127;28;20201;-70
2023/08/26 07:23:15;;;;;;;3.70;2.70;;;23.70;8.40;;;;;;5090955;28;20191;-70
2023/08/26 07:25:41;;;;;;;8.50;3.60;;;23.60;9.20;;;;;;5093490;28;20210;-72
2023/08/26 07:28:07;;;;;;;4.30;2.83;;;23.60;8.60;;;;;;5103121;28;20204;-73
2023/08/26 07:30:33;;;;;;;5.60;4.00;;;23.30;9.80;;;;;;5115594;28;20989;-72
2023/08/26 07:32:58;;;;;;;7.40;3.80;;;23.10;11.70;;;;;;5094325;28;20187;-71
2023/08/26 07:35:24;;;;;;;5.70;3.83;;;23.10;12.50;;;;;;5106356;28;20531;-71
2023/08/26 07:37:50;;;;;;;5.87;3.40;;;23.20;12.60;;;;;;5109064;28;20189;-71
2023/08/26 07:40:16;;;;;;;5.30;3.60;;;23.40;10.60;;;;;;5099917;28;20234;-71
2023/08/26 07:42:42;;;;;;;12.23;5.53;;;23.70;10.10;;;;;;5104001;28;20192;-71
2023/08/26 07:45:08;;;;;;;5.03;3.57;;;23.40;6.80;;;;;;5093346;28;20423;-73
2023/08/26 07:47:34;;;;;;;5.30;4.20;;;23.60;9.20;;;;;;5108122;28;20460;-70
2023/08/26 07:49:59;;;;;;;5.30;3.30;;;24.10;6.00;;;;;;5107512;28;20490;-70
2023/08/26 07:52:25;;;;;;;6.40;4.00;;;24.50;3.40;;;;;;5110444;28;20212;-70
2023/08/26 07:54:51;;;;;;;4.20;3.53;;;24.70;2.10;;;;;;5109678;28;20176;-68
2023/08/26 07:57:16;;;;;;;5.73;3.50;;;24.90;3.60;;;;;;5109092;28;20181;-70
2023/08/26 07:59:45;;;;;;;5.33;3.33;;;25.10;1.70;;;;;;5112178;28;20204;-68
2023/08/26 08:02:10;;;;;;;5.27;3.40;;;25.20;1.50;;;;;;5093622;28;20604;-69
2023/08/26 08:04:36;;;;;;;5.13;2.87;;;25.90;1.00;;;;;;5110926;28;20726;-69
2023/08/26 08:07:01;;;;;;;5.03;3.67;;;27.00;1.00;;;;;;5112277;28;20192;-70
2023/08/26 08:09:27;;;;;;;5.20;3.70;;;27.40;1.00;;;;;;5112063;28;20176;-69
2023/08/26 08:11:52;;;;;;;5.03;3.30;;;27.50;1.00;;;;;;5112436;28;20211;-70
2023/08/26 08:14:18;;;;;;;6.40;3.60;;;28.30;1.00;;;;;;5111222;28;20255;-70
2023/08/26 08:16:43;;;;;;;7.53;3.50;;;28.00;1.00;;;;;;5093365;28;20220;-70
2023/08/26 08:19:09;;;;;;;6.90;4.60;;;27.10;1.00;;;;;;5111906;28;20176;-69
2023/08/26 08:21:34;;;;;;;5.63;3.67;;;26.80;1.00;;;;;;5111546;28;20719;-70
2023/08/26 08:24:00;;;;;;;5.07;2.90;;;26.50;1.00;;;;;;5112221;28;20177;-70
2023/08/26 08:26:27;;;;;;;5.90;4.70;;;26.60;1.00;;;;;;5111475;28;20186;-70
2023/08/26 08:28:53;;;;;;;5.90;3.90;;;26.40;1.00;;;;;;5112381;28;20229;-70
2023/08/26 08:31:19;;;;;;;5.33;3.67;;;26.10;1.00;;;;;;5111903;28;20473;-70
2023/08/26 08:33:44;;;;;;;5.37;3.57;;;25.60;1.00;;;;;;5111628;28;20171;-69
2023/08/26 08:36:10;;;;;;;5.00;3.73;;;25.60;1.00;;;;;;5115115;28;20398;-70
2023/08/26 08:38:35;;;;;;;4.40;3.37;;;25.90;1.00;;;;;;5115294;28;20233;-69
2023/08/26 08:41:01;;;;;;;11.60;3.97;;;25.70;1.00;;;;;;5100028;28;20201;-69
2023/08/26 08:43:30;;;;;;;4.97;3.30;;;25.60;1.00;;;;;;5076027;28;20173;-70
2023/08/26 08:45:57;;;;;;;4.10;3.07;;;25.50;1.00;;;;;;5110645;28;20188;-70
2023/08/26 08:48:23;;;;;;;8.30;3.23;;;25.10;1.00;;;;;;5115508;28;20414;-70
2023/08/26 08:50:49;;;;;;;4.20;3.60;;;25.00;1.00;;;;;;5114993;28;20468;-70
2023/08/26 08:53:22;;;;;;;6.00;3.37;;;25.10;1.00;;;;;;5115202;28;20402;-69
2023/08/26 08:55:48;;;;;;;4.20;3.07;;;25.30;1.00;;;;;;5114841;28;20436;-69
2023/08/26 08:58:14;;;;;;;3.63;3.13;;;25.40;1.00;;;;;;5096317;28;20740;-69
2023/08/26 09:00:40;;;;;;;6.50;3.20;;;25.70;1.00;;;;;;5115190;28;20433;-70
2023/08/26 09:03:08;;;;;;;9.30;4.00;;;25.80;1.00;;;;;;5114742;28;20912;-70
2023/08/26 09:05:34;;;;;;;4.43;3.93;;;25.90;1.00;;;;;;5096646;28;20414;-70
2023/08/26 09:08:02;;;;;;;5.93;3.43;;;25.40;1.00;;;;;;5114332;28;20487;-70
2023/08/26 09:10:28;;;;;;;4.50;3.50;;;24.80;1.00;;;;;;5114437;28;20503;-70
2023/08/26 09:12:54;;;;;;;6.13;3.80;;;25.30;1.00;;;;;;5115164;28;20399;-69
2023/08/26 09:15:20;;;;;;;5.93;4.23;;;25.10;1.00;;;;;;5114928;28;20407;-69
2023/08/26 09:17:46;;;;;;;3.77;2.90;;;24.80;1.00;;;;;;5114648;28;20164;-69
2023/08/26 09:20:12;;;;;;;6.20;4.13;;;24.70;1.00;;;;;;5116154;28;20471;-72
2023/08/26 09:22:37;;;;;;;3.60;2.90;;;24.50;1.00;;;;;;5114531;28;20186;-72
2023/08/26 09:25:04;;;;;;;3.70;2.80;;;24.70;1.00;;;;;;5114519;28;20531;-70
2023/08/26 09:27:39;;;;;;;3.80;2.60;;;24.90;1.00;;;;;;5114479;28;20637;-70
2023/08/26 09:30:07;;;;;;;6.00;3.67;;;25.70;1.00;;;;;;5096089;28;20470;-72
2023/08/26 09:32:34;;;;;;;4.27;3.63;;;26.00;1.00;;;;;;5114430;28;20502;-70
2023/08/26 09:35:16;;;;;;;7.23;3.30;;;26.20;1.00;;;;;;5114215;28;20930;-70
2023/08/26 09:37:45;;;;;;;7.43;3.43;;;26.70;1.00;;;;;;5108005;28;20489;-70
2023/08/26 09:40:15;;;;;;;4.90;3.70;;;27.20;1.00;;;;;;5113932;28;20434;-71
2023/08/26 09:42:41;;;;;;;6.37;4.73;;;27.10;1.00;;;;;;5114248;28;20425;-71
2023/08/26 09:45:13;;;;;;;4.67;3.47;;;27.20;1.00;;;;;;5113886;28;20453;-70
2023/08/26 09:47:39;;;;;;;4.93;3.40;;;27.30;1.00;;;;;;5113630;28;20791;-70
2023/08/26 09:50:06;;;;;;;6.20;3.83;;;27.20;1.00;;;;;;5113418;28;20446;-70
2023/08/26 09:52:42;;;;;;;8.63;4.07;;;26.70;1.00;;;;;;5095809;28;20452;-70
2023/08/26 09:55:08;;;;;;;7.23;4.30;;;27.10;1.00;;;;;;5113956;28;20421;-71
2023/08/26 09:57:34;;;;;;;5.97;3.60;;;27.40;1.00;;;;;;5113664;28;20411;-70
2023/08/26 09:59:59;;;;;;;5.43;4.47;;;27.40;1.00;;;;;;5094114;28;20431;-70
2023/08/26 10:02:26;;;;;;;4.60;3.17;;;27.10;1.00;;;;;;5098103;28;20177;-70
2023/08/26 10:04:55;;;;;;;6.73;3.93;;;27.10;1.00;;;;;;5114008;28;20538;-70
2023/08/26 10:07:23;;;;;;;3.40;3.10;;;27.20;1.00;;;;;;5113803;28;20460;-70
2023/08/26 10:10:30;;;;;;;5.30;3.77;;;27.50;1.00;;;;;;5113744;28;20830;-70
2023/08/26 10:13:01;;;;;;;5.00;3.77;;;27.20;1.00;;;;;;5063809;28;20426;-70
2023/08/26 10:15:32;;;;;;;8.10;3.93;;;26.90;1.00;;;;;;5113420;28;20782;-70
2023/08/26 10:18:08;;;;;;;5.20;3.90;;;26.90;1.00;;;;;;5112197;28;20923;-70
2023/08/26 10:20:35;;;;;;;6.93;3.53;;;27.10;1.00;;;;;;5113583;28;20418;-70
2023/08/26 10:23:06;;;;;;;12.83;4.10;;;27.20;1.00;;;;;;5113458;28;20410;-70
2023/08/26 10:25:32;;;;;;;4.10;3.70;;;27.40;1.00;;;;;;5113661;28;20403;-71
2023/08/26 10:27:59;;;;;;;5.03;3.70;;;27.30;1.00;;;;;;5113091;28;20420;-70
2023/08/26 10:30:25;;;;;;;4.07;3.77;;;27.30;1.00;;;;;;5113092;28;20523;-70
2023/08/26 10:33:00;;;;;;;5.77;3.70;;;26.80;1.00;;;;;;5113068;28;20463;-70
2023/08/26 10:35:27;;;;;;;6.23;4.10;;;26.40;1.00;;;;;;5114180;28;20502;-71
2023/08/26 10:38:11;;;;;;;5.00;3.70;;;26.30;1.00;;;;;;5115019;28;20399;-73
2023/08/26 10:40:36;;;;;;;6.03;3.90;;;26.10;1.00;;;;;;5094995;28;20442;-73
2023/08/26 10:43:12;;;;;;;6.30;4.00;;;26.50;1.00;;;;;;5112875;28;20438;-70
2023/08/26 10:45:46;;;;;;;3.90;3.50;;;26.90;1.00;;;;;;5112683;28;20195;-69
2023/08/26 10:48:12;;;;;;;4.07;3.67;;;26.70;1.00;;;;;;5094244;28;20421;-69
2023/08/26 10:50:38;;;;;;;9.37;4.63;;;27.20;1.00;;;;;;5091014;28;20534;-68
2023/08/26 10:53:19;;;;;;;6.00;3.93;;;27.30;1.00;;;;;;5099717;28;20295;-67
2023/08/26 10:55:47;;;;;;;6.20;4.50;;;27.00;1.00;;;;;;5108759;28;20532;-68
2023/08/26 10:58:18;;;;;;;4.20;3.80;;;27.20;1.00;;;;;;5112811;28;20413;-68
2023/08/26 11:00:48;;;;;;;4.20;3.80;;;26.80;1.00;;;;;;5111483;28;20465;-68
2023/08/26 11:03:17;;;;;;;3.90;3.30;;;27.10;1.00;;;;;;5112858;28;20895;-68
2023/08/26 11:05:59;;;;;;;3.67;3.37;;;27.20;1.00;;;;;;5112666;28;20414;-68
2023/08/26 11:08:24;;;;;;;3.93;3.37;;;27.00;1.00;;;;;;5112909;28;20401;-68
2023/08/26 11:10:51;;;;;;;7.90;5.13;;;26.90;1.00;;;;;;5112764;28;20458;-68
2023/08/26 11:13:17;;;;;;;4.37;3.60;;;26.90;1.00;;;;;;5112611;28;20253;-68
2023/08/26 11:15:43;;;;;;;4.90;4.10;;;26.50;1.00;;;;;;5112485;28;20470;-68
2023/08/26 11:18:10;;;;;;;5.67;3.90;;;26.00;1.00;;;;;;5112612;28;20180;-69
2023/08/26 11:20:37;;;;;;;5.13;3.30;;;25.70;1.00;;;;;;5112445;28;20915;-68
2023/08/26 11:23:04;;;;;;;6.00;3.87;;;25.80;1.00;;;;;;5112318;28;20426;-69
2023/08/26 11:25:30;;;;;;;4.40;3.73;;;25.80;1.00;;;;;;5112543;28;20475;-68
2023/08/26 11:28:10;;;;;;;4.67;3.47;;;25.90;1.00;;;;;;5112334;28;20936;-68
2023/08/26 11:30:45;;;;;;;4.97;4.20;;;26.20;1.00;;;;;;5112536;28;20457;-67
2023/08/26 11:33:16;;;;;;;5.60;3.67;;;26.40;1.00;;;;;;5112353;28;20406;-68
2023/08/26 11:35:43;;;;;;;5.13;4.23;;;25.80;1.00;;;;;;5112298;28;20406;-67
2023/08/26 11:38:08;;;;;;;5.80;4.03;;;25.80;1.00;;;;;;5112498;28;20508;-68
2023/08/26 11:40:35;;;;;;;5.20;3.57;;;25.70;1.00;;;;;;5112397;28;20517;-67
2023/08/26 11:43:12;;;;;;;3.87;3.33;;;25.30;1.00;;;;;;5112420;28;20534;-67
2023/08/26 11:45:40;;;;;;;7.87;4.07;;;25.40;1.00;;;;;;5112291;28;20428;-69
2023/08/26 11:48:10;;;;;;;6.43;4.47;;;25.20;1.00;;;;;;5112221;28;20484;-69
2023/08/26 11:50:36;;;;;;;6.47;3.93;;;24.70;1.00;;;;;;5111845;28;20502;-69
2023/08/26 11:53:03;;;;;;;4.33;3.93;;;24.50;1.00;;;;;;5112081;28;20441;-73
2023/08/26 11:55:30;;;;;;;4.67;3.57;;;24.40;1.00;;;;;;5112130;28;20907;-70
2023/08/26 11:57:57;;;;;;;6.13;4.00;;;24.00;1.00;;;;;;5112118;28;20413;-70
2023/08/26 12:00:23;;;;;;;8.00;3.77;;;23.80;1.50;;;;;;5112575;28;20957;-70
2023/08/26 12:02:55;;;;;;;6.43;3.63;;;23.60;1.00;;;;;;5111872;28;20460;-70
2023/08/26 12:05:21;;;;;;;6.73;4.53;;;23.70;4.00;;;;;;5112018;28;20418;-70
2023/08/26 12:07:54;;;;;;;4.47;3.10;;;23.60;7.20;;;;;;5112034;28;20414;-70
2023/08/26 12:10:20;;;;;;;4.90;3.97;;;23.40;6.70;;;;;;5114680;28;20180;-70
2023/08/26 12:12:47;;;;;;;5.80;3.70;;;23.40;5.60;;;;;;5115995;28;20778;-70
2023/08/26 12:15:17;;;;;;;5.00;3.30;;;23.20;5.20;;;;;;5116094;28;20160;-70
2023/08/26 12:17:54;;;;;;;6.53;4.30;;;22.90;8.10;;;;;;5112860;28;20415;-73
2023/08/26 12:20:23;;;;;;;8.03;3.90;;;22.60;10.60;;;;;;5113991;28;20441;-69
2023/08/26 12:22:49;;;;;;;7.57;3.37;;;22.40;11.50;;;;;;5114633;28;20408;-69
2023/08/26 12:25:38;;;;;;;12.03;4.37;;;22.40;11.90;;;;;;5096290;28;20415;-69
2023/08/26 12:28:15;;;;;;;9.07;4.67;;;22.60;13.90;;;;;;5110504;28;20436;-68
2023/08/26 12:30:44;;;;;;;7.67;4.27;;;22.70;12.10;;;;;;5115371;28;20899;-68
2023/08/26 12:33:10;;;;;;;6.83;4.27;;;22.70;12.50;;;;;;5114853;28;20479;-68
2023/08/26 12:35:37;;;;;;;6.87;4.33;;;22.60;12.00;;;;;;5112365;28;20509;-68
2023/08/26 12:38:03;;;;;;;4.93;3.90;;;22.60;13.90;;;;;;5114880;28;20410;-68
2023/08/26 12:40:31;;;;;;;5.77;4.30;;;22.20;16.10;;;;;;5100229;28;20827;-68
2023/08/26 12:42:57;;;;;;;6.20;4.63;;;22.10;16.10;;;;;;5094168;28;20411;-67
2023/08/26 12:45:22;;;;;;;4.20;3.37;;;22.00;17.90;;;;;;5112434;28;20422;-69
2023/08/26 12:47:48;;;;;;;6.53;3.60;;;21.80;17.80;;;;;;5114646;28;20760;-67
2023/08/26 12:50:13;;;;;;;7.20;4.77;;;21.60;19.20;;;;;;5101890;28;20291;-70